sensor_id;sensor_type;location;lat;lon;timestamp;P1;durP1;ratioP1;P2;durP2;ratioP2
1991;SDS011;997;48.448;8.924;2022-08-20T03:01:59;8.30;;;7.70;;
1991;SDS011;997;48.448;8.924;2022-08-20T03:04:27;7.40;;;6.70;;
1991;SDS011;997;48.448;8.924;2022-08-20T03:06:53;7.90;;;7.20;;
1991;SDS011;997;48.448;8.924;2022-08-20T03:09:19;7.37;;;6.80;;
1991;SDS011;997;48.448;8.924;2022-08-20T03:11:45;7.30;;;6.80;;
1991;SDS011;997;48.448;8.924;2022-08-20T03:14:12;8.20;;;7.40;;
1991;SDS011;997;48.448;8.924;2022-08-20T03:16:38;7.80;;;7.20;;
1991;SDS011;997;48.448;8.924;2022-08-20T03:19:03;7.57;;;6.97;;
1991;SDS011;997;48.448;8.924;2022-08-20T03:21:29;8.47;;;7.50;;
1991;SDS011;997;48.448;8.924;2022-08-20T03:23:55;8.13;;;7.33;;
1991;SDS011;997;48.448;8.924;2022-08-20T03:26:20;6.70;;;6.10;;
1991;SDS011;997;48.448;8.924;2022-08-20T03:28:46;6.97;;;6.47;;
1991;SDS011;997;48.448;8.924;2022-08-20T03:31:12;7.50;;;6.90;;
1991;SDS011;997;48.448;8.924;2022-08-20T03:33:39;7.40;;;6.80;;
1991;SDS011;997;48.448;8.924;2022-08-20T03:36:06;8.47;;;7.80;;
1991;SDS011;997;48.448;8.924;2022-08-20T03:38:32;6.90;;;6.40;;
1991;SDS011;997;48.448;8.924;2022-08-20T03:40:58;7.70;;;7.03;;
1991;SDS011;997;48.448;8.924;2022-08-20T03:43:25;7.63;;;7.13;;
1991;SDS011;997;48.448;8.924;2022-08-20T03:45:52;8.30;;;7.53;;
1991;SDS011;997;48.448;8.924;2022-08-20T03:48:19;8.23;;;6.93;;
1991;SDS011;997;48.448;8.924;2022-08-20T03:50:46;7.30;;;6.70;;
1991;SDS011;997;48.448;8.924;2022-08-20T03:53:14;7.73;;;7.10;;
1991;SDS011;997;48.448;8.924;2022-08-20T03:55:42;8.57;;;7.97;;
1991;SDS011;997;48.448;8.924;2022-08-20T03:58:11;8.00;;;7.40;;
1991;SDS011;997;48.448;8.924;2022-08-20T04:03:14;8.33;;;7.60;;
1991;SDS011;997;48.448;8.924;2022-08-20T04:05:41;8.13;;;7.43;;
1991;SDS011;997;48.448;8.924;2022-08-20T04:08:10;7.57;;;6.87;;
1991;SDS011;997;48.448;8.924;2022-08-20T04:10:47;9.20;;;7.80;;
1991;SDS011;997;48.448;8.924;2022-08-20T04:13:14;8.10;;;7.50;;
1991;SDS011;997;48.448;8.924;2022-08-20T04:15:41;9.03;;;8.13;;
1991;SDS011;997;48.448;8.924;2022-08-20T04:18:09;8.33;;;7.63;;
1991;SDS011;997;48.448;8.924;2022-08-20T04:20:36;7.50;;;6.80;;
1991;SDS011;997;48.448;8.924;2022-08-20T04:23:04;8.67;;;7.47;;
1991;SDS011;997;48.448;8.924;2022-08-20T04:25:30;7.23;;;6.70;;
1991;SDS011;997;48.448;8.924;2022-08-20T04:27:58;7.73;;;7.13;;
1991;SDS011;997;48.448;8.924;2022-08-20T04:30:26;7.23;;;6.73;;
1991;SDS011;997;48.448;8.924;2022-08-20T04:32:52;8.13;;;7.43;;
1991;SDS011;997;48.448;8.924;2022-08-20T04:35:19;8.97;;;8.17;;
1991;SDS011;997;48.448;8.924;2022-08-20T04:37:45;7.77;;;6.97;;
1991;SDS011;997;48.448;8.924;2022-08-20T04:40:14;7.93;;;7.33;;
1991;SDS011;997;48.448;8.924;2022-08-20T04:43:01;6.97;;;6.37;;
1991;SDS011;997;48.448;8.924;2022-08-20T04:45:31;7.40;;;6.80;;
1991;SDS011;997;48.448;8.924;2022-08-20T04:48:00;7.20;;;6.50;;
1991;SDS011;997;48.448;8.924;2022-08-20T04:50:28;8.17;;;7.50;;
1991;SDS011;997;48.448;8.924;2022-08-20T04:52:58;8.00;;;7.30;;
1991;SDS011;997;48.448;8.924;2022-08-20T04:55:24;7.93;;;7.37;;
1991;SDS011;997;48.448;8.924;2022-08-20T04:57:49;7.37;;;6.87;;
1991;SDS011;997;48.448;8.924;2022-08-20T05:00:16;7.77;;;7.07;;
1991;SDS011;997;48.448;8.924;2022-08-20T05:02:42;7.80;;;7.20;;
1991;SDS011;997;48.448;8.924;2022-08-20T05:05:08;7.07;;;6.47;;
1991;SDS011;997;48.448;8.924;2022-08-20T05:07:41;8.67;;;7.87;;
1991;SDS011;997;48.448;8.924;2022-08-20T05:10:13;8.00;;;7.30;;
1991;SDS011;997;48.448;8.924;2022-08-20T05:12:40;8.77;;;6.43;;
1991;SDS011;997;48.448;8.924;2022-08-20T05:15:07;8.50;;;7.77;;
1991;SDS011;997;48.448;8.924;2022-08-20T05:17:37;7.23;;;6.63;;
1991;SDS011;997;48.448;8.924;2022-08-20T05:20:05;7.53;;;7.00;;
1991;SDS011;997;48.448;8.924;2022-08-20T05:22:32;7.93;;;7.40;;
1991;SDS011;997;48.448;8.924;2022-08-20T05:24:58;7.50;;;6.90;;
1991;SDS011;997;48.448;8.924;2022-08-20T05:27:25;7.33;;;6.73;;
1991;SDS011;997;48.448;8.924;2022-08-20T05:30:03;7.50;;;6.90;;
1991;SDS011;997;48.448;8.924;2022-08-20T05:32:33;7.63;;;7.03;;
1991;SDS011;997;48.448;8.924;2022-08-20T05:35:00;7.43;;;6.93;;
1991;SDS011;997;48.448;8.924;2022-08-20T05:37:27;8.20;;;7.60;;
1991;SDS011;997;48.448;8.924;2022-08-20T05:39:54;10.63;;;7.83;;
1991;SDS011;997;48.448;8.924;2022-08-20T05:42:20;7.87;;;7.27;;
1991;SDS011;997;48.448;8.924;2022-08-20T05:44:45;9.70;;;8.60;;
1991;SDS011;997;48.448;8.924;2022-08-20T05:47:11;7.33;;;6.63;;
1991;SDS011;997;48.448;8.924;2022-08-20T05:49:38;7.50;;;6.80;;
1991;SDS011;997;48.448;8.924;2022-08-20T05:52:04;7.10;;;6.50;;
1991;SDS011;997;48.448;8.924;2022-08-20T05:54:30;7.33;;;6.73;;
1991;SDS011;997;48.448;8.924;2022-08-20T05:56:56;10.73;;;7.43;;
1991;SDS011;997;48.448;8.924;2022-08-20T05:59:23;8.30;;;7.60;;
1991;SDS011;997;48.448;8.924;2022-08-20T06:01:50;7.30;;;6.80;;
1991;SDS011;997;48.448;8.924;2022-08-20T06:04:16;7.10;;;6.50;;
1991;SDS011;997;48.448;8.924;2022-08-20T06:06:49;7.70;;;7.00;;
1991;SDS011;997;48.448;8.924;2022-08-20T06:09:20;8.40;;;7.80;;
1991;SDS011;997;48.448;8.924;2022-08-20T06:11:47;6.97;;;6.40;;
1991;SDS011;997;48.448;8.924;2022-08-20T06:14:13;8.20;;;7.50;;
1991;SDS011;997;48.448;8.924;2022-08-20T06:16:41;6.57;;;6.07;;
1991;SDS011;997;48.448;8.924;2022-08-20T06:19:07;7.40;;;6.70;;
1991;SDS011;997;48.448;8.924;2022-08-20T06:21:33;7.70;;;7.10;;
1991;SDS011;997;48.448;8.924;2022-08-20T06:23:59;7.63;;;7.13;;
1991;SDS011;997;48.448;8.924;2022-08-20T06:26:25;7.10;;;6.60;;
1991;SDS011;997;48.448;8.924;2022-08-20T06:28:50;7.30;;;6.70;;
1991;SDS011;997;48.448;8.924;2022-08-20T06:31:16;8.13;;;7.37;;
1991;SDS011;997;48.448;8.924;2022-08-20T06:33:42;6.23;;;5.70;;
1991;SDS011;997;48.448;8.924;2022-08-20T06:36:08;7.90;;;7.13;;
1991;SDS011;997;48.448;8.924;2022-08-20T06:38:34;8.30;;;7.60;;
1991;SDS011;997;48.448;8.924;2022-08-20T06:40:59;8.10;;;7.50;;
1991;SDS011;997;48.448;8.924;2022-08-20T06:43:26;8.17;;;7.00;;
1991;SDS011;997;48.448;8.924;2022-08-20T06:45:52;7.43;;;6.93;;
1991;SDS011;997;48.448;8.924;2022-08-20T06:48:21;6.90;;;6.40;;
1991;SDS011;997;48.448;8.924;2022-08-20T06:50:47;6.40;;;5.90;;
1991;SDS011;997;48.448;8.924;2022-08-20T06:53:15;6.77;;;6.27;;
1991;SDS011;997;48.448;8.924;2022-08-20T06:55:45;6.33;;;5.80;;
1991;SDS011;997;48.448;8.924;2022-08-20T06:58:13;7.20;;;6.70;;
1991;SDS011;997;48.448;8.924;2022-08-20T07:00:39;7.03;;;6.53;;
1991;SDS011;997;48.448;8.924;2022-08-20T07:03:07;6.53;;;6.03;;
1991;SDS011;997;48.448;8.924;2022-08-20T07:05:34;6.80;;;6.30;;
1991;SDS011;997;48.448;8.924;2022-08-20T07:08:02;7.03;;;6.43;;
1991;SDS011;997;48.448;8.924;2022-08-20T07:10:28;7.30;;;6.60;;
1991;SDS011;997;48.448;8.924;2022-08-20T07:12:56;7.47;;;6.77;;
1991;SDS011;997;48.448;8.924;2022-08-20T07:15:23;5.93;;;5.53;;
1991;SDS011;997;48.448;8.924;2022-08-20T07:17:53;6.60;;;6.00;;
1991;SDS011;997;48.448;8.924;2022-08-20T07:20:21;6.27;;;5.77;;
1991;SDS011;997;48.448;8.924;2022-08-20T07:22:47;7.03;;;6.30;;
1991;SDS011;997;48.448;8.924;2022-08-20T07:25:15;6.10;;;5.60;;
1991;SDS011;997;48.448;8.924;2022-08-20T07:27:42;6.57;;;5.77;;
1991;SDS011;997;48.448;8.924;2022-08-20T07:30:11;6.50;;;5.77;;
1991;SDS011;997;48.448;8.924;2022-08-20T07:32:58;7.50;;;6.90;;
1991;SDS011;997;48.448;8.924;2022-08-20T07:35:24;6.87;;;6.30;;
1991;SDS011;997;48.448;8.924;2022-08-20T07:37:51;7.07;;;6.43;;
1991;SDS011;997;48.448;8.924;2022-08-20T07:40:24;6.97;;;6.47;;
1991;SDS011;997;48.448;8.924;2022-08-20T07:42:57;7.90;;;7.20;;
1991;SDS011;997;48.448;8.924;2022-08-20T07:45:25;6.60;;;6.10;;
1991;SDS011;997;48.448;8.924;2022-08-20T07:47:51;6.93;;;6.33;;
1991;SDS011;997;48.448;8.924;2022-08-20T07:50:18;7.03;;;6.50;;
1991;SDS011;997;48.448;8.924;2022-08-20T07:52:46;6.70;;;5.80;;
1991;SDS011;997;48.448;8.924;2022-08-20T07:55:13;7.87;;;6.50;;
1991;SDS011;997;48.448;8.924;2022-08-20T07:57:40;8.50;;;6.03;;
1991;SDS011;997;48.448;8.924;2022-08-20T08:00:07;5.80;;;5.40;;
1991;SDS011;997;48.448;8.924;2022-08-20T08:02:35;6.47;;;5.70;;
1991;SDS011;997;48.448;8.924;2022-08-20T08:05:04;6.33;;;5.93;;
1991;SDS011;997;48.448;8.924;2022-08-20T08:07:30;6.90;;;6.40;;
1991;SDS011;997;48.448;8.924;2022-08-20T08:09:57;5.77;;;5.37;;
1991;SDS011;997;48.448;8.924;2022-08-20T08:12:38;6.13;;;5.63;;
1991;SDS011;997;48.448;8.924;2022-08-20T08:15:08;6.90;;;6.30;;
1991;SDS011;997;48.448;8.924;2022-08-20T08:17:39;6.30;;;5.70;;
1991;SDS011;997;48.448;8.924;2022-08-20T08:20:05;6.03;;;5.53;;
1991;SDS011;997;48.448;8.924;2022-08-20T08:22:32;6.37;;;5.97;;
1991;SDS011;997;48.448;8.924;2022-08-20T08:24:58;5.97;;;5.57;;
1991;SDS011;997;48.448;8.924;2022-08-20T08:27:29;5.70;;;5.30;;
1991;SDS011;997;48.448;8.924;2022-08-20T08:29:59;5.80;;;5.30;;
1991;SDS011;997;48.448;8.924;2022-08-20T08:32:25;5.80;;;5.30;;
1991;SDS011;997;48.448;8.924;2022-08-20T08:34:52;5.83;;;5.33;;
1991;SDS011;997;48.448;8.924;2022-08-20T08:37:18;5.43;;;4.93;;
1991;SDS011;997;48.448;8.924;2022-08-20T08:39:44;8.80;;;4.93;;
1991;SDS011;997;48.448;8.924;2022-08-20T08:45:12;4.83;;;4.43;;
1991;SDS011;997;48.448;8.924;2022-08-20T08:47:41;5.00;;;4.70;;
1991;SDS011;997;48.448;8.924;2022-08-20T08:50:10;5.73;;;4.83;;
1991;SDS011;997;48.448;8.924;2022-08-20T08:52:46;5.20;;;4.80;;
1991;SDS011;997;48.448;8.924;2022-08-20T08:55:18;6.10;;;5.60;;
1991;SDS011;997;48.448;8.924;2022-08-20T08:57:47;6.23;;;5.63;;
1991;SDS011;997;48.448;8.924;2022-08-20T09:00:15;4.50;;;4.20;;
1991;SDS011;997;48.448;8.924;2022-08-20T09:03:44;5.97;;;5.47;;
1991;SDS011;997;48.448;8.924;2022-08-20T09:05:45;5.83;;;5.30;;
1991;SDS011;997;48.448;8.924;2022-08-20T09:08:22;5.20;;;4.70;;
1991;SDS011;997;48.448;8.924;2022-08-20T09:10:51;5.30;;;4.90;;
1991;SDS011;997;48.448;8.924;2022-08-20T09:13:17;5.83;;;5.33;;
1991;SDS011;997;48.448;8.924;2022-08-20T09:15:43;4.50;;;4.20;;
1991;SDS011;997;48.448;8.924;2022-08-20T09:18:08;5.33;;;4.90;;
1991;SDS011;997;48.448;8.924;2022-08-20T09:20:34;4.90;;;4.60;;
1991;SDS011;997;48.448;8.924;2022-08-20T09:23:00;5.40;;;4.90;;
1991;SDS011;997;48.448;8.924;2022-08-20T09:25:28;4.37;;;4.07;;
1991;SDS011;997;48.448;8.924;2022-08-20T09:27:54;3.10;;;2.90;;
1991;SDS011;997;48.448;8.924;2022-08-20T09:30:20;3.03;;;2.83;;
1991;SDS011;997;48.448;8.924;2022-08-20T09:32:46;3.20;;;3.00;;
1991;SDS011;997;48.448;8.924;2022-08-20T09:35:11;3.23;;;3.03;;
1991;SDS011;997;48.448;8.924;2022-08-20T09:37:37;3.13;;;2.70;;
1991;SDS011;997;48.448;8.924;2022-08-20T09:40:04;3.47;;;3.17;;
1991;SDS011;997;48.448;8.924;2022-08-20T09:42:33;3.23;;;3.03;;
1991;SDS011;997;48.448;8.924;2022-08-20T09:45:01;3.20;;;3.00;;
1991;SDS011;997;48.448;8.924;2022-08-20T09:47:27;3.73;;;3.43;;
1991;SDS011;997;48.448;8.924;2022-08-20T09:49:52;3.07;;;2.77;;
1991;SDS011;997;48.448;8.924;2022-08-20T09:52:20;3.43;;;3.13;;
1991;SDS011;997;48.448;8.924;2022-08-20T09:55:00;3.40;;;3.20;;
1991;SDS011;997;48.448;8.924;2022-08-20T09:57:35;3.43;;;3.23;;
1991;SDS011;997;48.448;8.924;2022-08-20T10:00:03;3.37;;;3.17;;
1991;SDS011;997;48.448;8.924;2022-08-20T10:02:32;3.50;;;3.20;;
1991;SDS011;997;48.448;8.924;2022-08-20T10:04:58;3.23;;;3.03;;
1991;SDS011;997;48.448;8.924;2022-08-20T10:07:24;3.33;;;3.03;;
1991;SDS011;997;48.448;8.924;2022-08-20T10:09:49;3.87;;;2.70;;
1991;SDS011;997;48.448;8.924;2022-08-20T10:12:15;2.70;;;2.50;;
1991;SDS011;997;48.448;8.924;2022-08-20T10:14:41;2.93;;;2.73;;
1991;SDS011;997;48.448;8.924;2022-08-20T10:17:07;2.50;;;2.30;;
1991;SDS011;997;48.448;8.924;2022-08-20T10:19:32;2.37;;;2.27;;
1991;SDS011;997;48.448;8.924;2022-08-20T10:21:58;1.93;;;1.83;;
1991;SDS011;997;48.448;8.924;2022-08-20T10:24:24;2.50;;;2.40;;
1991;SDS011;997;48.448;8.924;2022-08-20T10:26:53;2.70;;;2.50;;
1991;SDS011;997;48.448;8.924;2022-08-20T10:29:23;2.20;;;2.00;;
1991;SDS011;997;48.448;8.924;2022-08-20T10:31:50;2.63;;;1.90;;
1991;SDS011;997;48.448;8.924;2022-08-20T10:34:15;2.13;;;1.30;;
1991;SDS011;997;48.448;8.924;2022-08-20T10:36:41;0.90;;;0.80;;
1991;SDS011;997;48.448;8.924;2022-08-20T10:39:07;1.20;;;1.10;;
1991;SDS011;997;48.448;8.924;2022-08-20T10:41:33;1.43;;;1.33;;
1991;SDS011;997;48.448;8.924;2022-08-20T10:43:59;2.00;;;1.67;;
1991;SDS011;997;48.448;8.924;2022-08-20T10:46:25;1.90;;;1.80;;
1991;SDS011;997;48.448;8.924;2022-08-20T10:48:50;2.83;;;1.70;;
1991;SDS011;997;48.448;8.924;2022-08-20T10:51:16;4.77;;;1.70;;
1991;SDS011;997;48.448;8.924;2022-08-20T10:53:42;2.93;;;1.90;;
1991;SDS011;997;48.448;8.924;2022-08-20T10:56:08;6.80;;;2.10;;
1991;SDS011;997;48.448;8.924;2022-08-20T10:58:33;7.33;;;1.97;;
1991;SDS011;997;48.448;8.924;2022-08-20T11:00:59;1.60;;;1.23;;
1991;SDS011;997;48.448;8.924;2022-08-20T11:03:25;3.47;;;1.90;;
1991;SDS011;997;48.448;8.924;2022-08-20T11:05:50;2.50;;;1.93;;
1991;SDS011;997;48.448;8.924;2022-08-20T11:08:16;2.90;;;1.90;;
1991;SDS011;997;48.448;8.924;2022-08-20T11:10:42;1.67;;;1.57;;
1991;SDS011;997;48.448;8.924;2022-08-20T11:13:07;3.27;;;1.77;;
1991;SDS011;997;48.448;8.924;2022-08-20T11:15:38;2.97;;;2.00;;
1991;SDS011;997;48.448;8.924;2022-08-20T11:18:06;2.80;;;2.20;;
1991;SDS011;997;48.448;8.924;2022-08-20T11:20:32;1.63;;;1.43;;
1991;SDS011;997;48.448;8.924;2022-08-20T11:22:58;1.97;;;1.77;;
1991;SDS011;997;48.448;8.924;2022-08-20T11:25:25;1.67;;;1.57;;
1991;SDS011;997;48.448;8.924;2022-08-20T11:27:52;2.47;;;1.93;;
1991;SDS011;997;48.448;8.924;2022-08-20T11:30:29;1.90;;;1.60;;
1991;SDS011;997;48.448;8.924;2022-08-20T11:32:56;1.93;;;1.80;;
1991;SDS011;997;48.448;8.924;2022-08-20T11:35:23;4.90;;;1.67;;
1991;SDS011;997;48.448;8.924;2022-08-20T11:37:51;2.13;;;2.00;;
1991;SDS011;997;48.448;8.924;2022-08-20T11:40:19;2.93;;;2.17;;
1991;SDS011;997;48.448;8.924;2022-08-20T11:42:45;2.70;;;2.50;;
1991;SDS011;997;48.448;8.924;2022-08-20T11:45:11;1.90;;;1.80;;
1991;SDS011;997;48.448;8.924;2022-08-20T11:47:38;1.90;;;1.77;;
1991;SDS011;997;48.448;8.924;2022-08-20T11:50:06;3.43;;;2.30;;
1991;SDS011;997;48.448;8.924;2022-08-20T11:52:33;2.80;;;2.60;;
1991;SDS011;997;48.448;8.924;2022-08-20T11:54:59;7.07;;;3.10;;
1991;SDS011;997;48.448;8.924;2022-08-20T11:57:26;2.87;;;2.47;;
1991;SDS011;997;48.448;8.924;2022-08-20T11:59:55;1.47;;;1.10;;
1991;SDS011;997;48.448;8.924;2022-08-20T12:02:23;1.60;;;0.93;;
1991;SDS011;997;48.448;8.924;2022-08-20T12:04:49;1.50;;;1.07;;
1991;SDS011;997;48.448;8.924;2022-08-20T12:07:16;2.00;;;1.40;;
1991;SDS011;997;48.448;8.924;2022-08-20T12:09:44;1.20;;;1.10;;
1991;SDS011;997;48.448;8.924;2022-08-20T12:12:11;2.67;;;1.30;;
1991;SDS011;997;48.448;8.924;2022-08-20T12:14:38;1.50;;;1.40;;
1991;SDS011;997;48.448;8.924;2022-08-20T12:17:08;1.87;;;1.40;;
1991;SDS011;997;48.448;8.924;2022-08-20T12:19:38;1.33;;;1.13;;
1991;SDS011;997;48.448;8.924;2022-08-20T12:22:05;2.67;;;1.03;;
1991;SDS011;997;48.448;8.924;2022-08-20T12:24:30;5.50;;;0.80;;
1991;SDS011;997;48.448;8.924;2022-08-20T12:27:16;1.87;;;1.30;;
1991;SDS011;997;48.448;8.924;2022-08-20T12:29:45;1.53;;;1.43;;
1991;SDS011;997;48.448;8.924;2022-08-20T12:32:13;2.13;;;1.00;;
1991;SDS011;997;48.448;8.924;2022-08-20T12:34:40;1.43;;;1.30;;
1991;SDS011;997;48.448;8.924;2022-08-20T12:37:07;1.37;;;1.27;;
1991;SDS011;997;48.448;8.924;2022-08-20T12:39:39;2.37;;;1.20;;
1991;SDS011;997;48.448;8.924;2022-08-20T12:42:06;1.50;;;1.33;;
1991;SDS011;997;48.448;8.924;2022-08-20T12:44:33;1.40;;;1.03;;
1991;SDS011;997;48.448;8.924;2022-08-20T12:47:14;2.67;;;1.37;;
1991;SDS011;997;48.448;8.924;2022-08-20T12:49:53;1.10;;;1.00;;
1991;SDS011;997;48.448;8.924;2022-08-20T12:52:22;1.40;;;1.30;;
1991;SDS011;997;48.448;8.924;2022-08-20T12:54:49;1.27;;;1.17;;
1991;SDS011;997;48.448;8.924;2022-08-20T12:57:15;1.40;;;1.27;;
1991;SDS011;997;48.448;8.924;2022-08-20T12:59:48;1.33;;;1.20;;
1991;SDS011;997;48.448;8.924;2022-08-20T13:02:13;1.57;;;1.47;;
1991;SDS011;997;48.448;8.924;2022-08-20T13:04:41;1.13;;;1.03;;
1991;SDS011;997;48.448;8.924;2022-08-20T13:07:09;1.43;;;1.30;;
1991;SDS011;997;48.448;8.924;2022-08-20T13:09:36;1.30;;;1.20;;
1991;SDS011;997;48.448;8.924;2022-08-20T13:12:02;1.43;;;1.33;;
1991;SDS011;997;48.448;8.924;2022-08-20T13:14:28;2.10;;;1.50;;
1991;SDS011;997;48.448;8.924;2022-08-20T13:16:55;2.67;;;1.20;;
1991;SDS011;997;48.448;8.924;2022-08-20T13:19:21;1.30;;;1.17;;
1991;SDS011;997;48.448;8.924;2022-08-20T13:21:48;2.20;;;1.70;;
1991;SDS011;997;48.448;8.924;2022-08-20T13:24:13;1.50;;;1.40;;
1991;SDS011;997;48.448;8.924;2022-08-20T13:26:39;1.30;;;1.20;;
1991;SDS011;997;48.448;8.924;2022-08-20T13:29:05;1.50;;;1.40;;
1991;SDS011;997;48.448;8.924;2022-08-20T13:31:30;1.20;;;1.10;;
1991;SDS011;997;48.448;8.924;2022-08-20T13:33:56;1.37;;;1.27;;
1991;SDS011;997;48.448;8.924;2022-08-20T13:36:22;1.20;;;1.10;;
1991;SDS011;997;48.448;8.924;2022-08-20T13:38:47;2.60;;;1.70;;
1991;SDS011;997;48.448;8.924;2022-08-20T13:41:13;1.50;;;1.40;;
1991;SDS011;997;48.448;8.924;2022-08-20T13:43:39;1.20;;;1.10;;
1991;SDS011;997;48.448;8.924;2022-08-20T13:46:04;1.03;;;0.93;;
1991;SDS011;997;48.448;8.924;2022-08-20T13:48:30;1.30;;;1.20;;
1991;SDS011;997;48.448;8.924;2022-08-20T13:50:57;1.23;;;1.13;;
1991;SDS011;997;48.448;8.924;2022-08-20T13:53:22;2.70;;;1.33;;
1991;SDS011;997;48.448;8.924;2022-08-20T13:55:49;2.63;;;1.83;;
1991;SDS011;997;48.448;8.924;2022-08-20T13:58:14;11.00;;;2.90;;
1991;SDS011;997;48.448;8.924;2022-08-20T14:00:42;7.90;;;2.33;;
1991;SDS011;997;48.448;8.924;2022-08-20T14:03:09;1.03;;;1.00;;
1991;SDS011;997;48.448;8.924;2022-08-20T14:05:35;1.30;;;1.20;;
1991;SDS011;997;48.448;8.924;2022-08-20T14:08:21;1.50;;;1.40;;
1991;SDS011;997;48.448;8.924;2022-08-20T14:10:47;1.17;;;1.07;;
1991;SDS011;997;48.448;8.924;2022-08-20T14:13:15;1.10;;;1.07;;
1991;SDS011;997;48.448;8.924;2022-08-20T14:15:42;1.50;;;1.40;;
1991;SDS011;997;48.448;8.924;2022-08-20T14:18:09;1.23;;;1.20;;
1991;SDS011;997;48.448;8.924;2022-08-20T14:20:34;0.97;;;0.97;;
1991;SDS011;997;48.448;8.924;2022-08-20T14:23:00;1.30;;;1.20;;
1991;SDS011;997;48.448;8.924;2022-08-20T14:25:27;1.13;;;1.03;;
1991;SDS011;997;48.448;8.924;2022-08-20T14:27:56;2.77;;;1.60;;
1991;SDS011;997;48.448;8.924;2022-08-20T14:30:25;1.40;;;1.30;;
1991;SDS011;997;48.448;8.924;2022-08-20T14:32:53;1.33;;;1.00;;
1991;SDS011;997;48.448;8.924;2022-08-20T14:35:19;1.30;;;1.20;;
1991;SDS011;997;48.448;8.924;2022-08-20T14:37:46;1.30;;;1.20;;
1991;SDS011;997;48.448;8.924;2022-08-20T14:40:16;1.20;;;1.13;;
1991;SDS011;997;48.448;8.924;2022-08-20T14:42:42;0.90;;;0.80;;
1991;SDS011;997;48.448;8.924;2022-08-20T14:45:09;0.80;;;0.80;;
1991;SDS011;997;48.448;8.924;2022-08-20T14:47:40;1.10;;;1.00;;
1991;SDS011;997;48.448;8.924;2022-08-20T14:50:12;2.83;;;1.23;;
1991;SDS011;997;48.448;8.924;2022-08-20T14:52:40;1.37;;;1.20;;
1991;SDS011;997;48.448;8.924;2022-08-20T14:55:08;1.77;;;1.10;;
1991;SDS011;997;48.448;8.924;2022-08-20T14:57:37;1.00;;;0.73;;
1991;SDS011;997;48.448;8.924;2022-08-20T15:00:05;1.60;;;1.50;;
1991;SDS011;997;48.448;8.924;2022-08-20T15:02:34;1.20;;;1.10;;
1991;SDS011;997;48.448;8.924;2022-08-20T15:05:00;0.90;;;0.90;;
1991;SDS011;997;48.448;8.924;2022-08-20T15:07:28;1.30;;;1.20;;
1991;SDS011;997;48.448;8.924;2022-08-20T15:09:55;1.73;;;1.13;;
1991;SDS011;997;48.448;8.924;2022-08-20T15:12:22;1.47;;;1.20;;
1991;SDS011;997;48.448;8.924;2022-08-20T15:14:49;0.73;;;0.70;;
1991;SDS011;997;48.448;8.924;2022-08-20T15:17:19;1.90;;;1.07;;
1991;SDS011;997;48.448;8.924;2022-08-20T15:19:46;1.00;;;0.90;;
1991;SDS011;997;48.448;8.924;2022-08-20T15:22:12;1.50;;;1.40;;
1991;SDS011;997;48.448;8.924;2022-08-20T15:24:38;1.40;;;1.27;;
1991;SDS011;997;48.448;8.924;2022-08-20T15:27:11;1.13;;;1.00;;
1991;SDS011;997;48.448;8.924;2022-08-20T15:29:42;1.30;;;1.20;;
1991;SDS011;997;48.448;8.924;2022-08-20T15:32:09;1.10;;;1.00;;
1991;SDS011;997;48.448;8.924;2022-08-20T15:34:35;1.07;;;0.97;;
1991;SDS011;997;48.448;8.924;2022-08-20T15:37:07;1.57;;;1.20;;
1991;SDS011;997;48.448;8.924;2022-08-20T15:39:35;0.87;;;0.77;;
1991;SDS011;997;48.448;8.924;2022-08-20T15:42:01;1.20;;;0.90;;
1991;SDS011;997;48.448;8.924;2022-08-20T15:44:28;2.13;;;1.20;;
1991;SDS011;997;48.448;8.924;2022-08-20T15:46:55;0.83;;;0.83;;
1991;SDS011;997;48.448;8.924;2022-08-20T15:49:35;1.00;;;0.90;;
1991;SDS011;997;48.448;8.924;2022-08-20T15:52:01;1.23;;;0.70;;
1991;SDS011;997;48.448;8.924;2022-08-20T15:54:27;0.77;;;0.77;;
1991;SDS011;997;48.448;8.924;2022-08-20T15:57:02;0.60;;;0.60;;
1991;SDS011;997;48.448;8.924;2022-08-20T16:08:21;0.60;;;0.60;;
1991;SDS011;997;48.448;8.924;2022-08-20T16:14:14;4.30;;;0.60;;
1991;SDS011;997;48.448;8.924;2022-08-20T16:16:53;0.80;;;0.60;;
1991;SDS011;997;48.448;8.924;2022-08-20T16:22:23;0.60;;;0.57;;
1991;SDS011;997;48.448;8.924;2022-08-20T16:24:52;0.70;;;0.70;;
1991;SDS011;997;48.448;8.924;2022-08-20T16:33:48;1.30;;;1.00;;
1991;SDS011;997;48.448;8.924;2022-08-20T16:36:08;0.70;;;0.50;;
1991;SDS011;997;48.448;8.924;2022-08-20T16:38:47;0.60;;;0.60;;
1991;SDS011;997;48.448;8.924;2022-08-20T16:41:27;1.43;;;0.80;;
1991;SDS011;997;48.448;8.924;2022-08-20T16:44:03;0.80;;;0.80;;
1991;SDS011;997;48.448;8.924;2022-08-20T16:46:36;0.60;;;0.57;;
1991;SDS011;997;48.448;8.924;2022-08-20T16:49:09;0.80;;;0.60;;
1991;SDS011;997;48.448;8.924;2022-08-20T16:54:03;0.60;;;0.50;;
1991;SDS011;997;48.448;8.924;2022-08-20T16:56:55;0.60;;;0.60;;
1991;SDS011;997;48.448;8.924;2022-08-20T16:59:21;0.60;;;0.50;;
1991;SDS011;997;48.448;8.924;2022-08-20T17:01:59;0.77;;;0.60;;
1991;SDS011;997;48.448;8.924;2022-08-20T17:04:28;0.70;;;0.70;;
1991;SDS011;997;48.448;8.924;2022-08-20T17:06:54;0.80;;;0.60;;
1991;SDS011;997;48.448;8.924;2022-08-20T17:09:37;0.80;;;0.80;;
1991;SDS011;997;48.448;8.924;2022-08-20T17:12:14;0.60;;;0.60;;
1991;SDS011;997;48.448;8.924;2022-08-20T17:14:44;0.70;;;0.70;;
1991;SDS011;997;48.448;8.924;2022-08-20T17:17:22;1.50;;;0.77;;
1991;SDS011;997;48.448;8.924;2022-08-20T17:19:55;0.97;;;0.87;;
1991;SDS011;997;48.448;8.924;2022-08-20T17:22:40;2.03;;;0.90;;
1991;SDS011;997;48.448;8.924;2022-08-20T17:25:14;0.97;;;0.87;;
1991;SDS011;997;48.448;8.924;2022-08-20T17:27:42;0.80;;;0.80;;
1991;SDS011;997;48.448;8.924;2022-08-20T17:32:50;1.30;;;1.20;;
1991;SDS011;997;48.448;8.924;2022-08-20T17:35:32;1.33;;;1.23;;
1991;SDS011;997;48.448;8.924;2022-08-20T17:38:06;1.30;;;1.10;;
1991;SDS011;997;48.448;8.924;2022-08-20T17:40:47;1.57;;;1.47;;
1991;SDS011;997;48.448;8.924;2022-08-20T17:43:31;7.90;;;3.30;;
1991;SDS011;997;48.448;8.924;2022-08-20T17:45:59;2.40;;;1.50;;
1991;SDS011;997;48.448;8.924;2022-08-20T17:48:34;2.93;;;1.30;;
1991;SDS011;997;48.448;8.924;2022-08-20T17:51:09;1.40;;;1.20;;
1991;SDS011;997;48.448;8.924;2022-08-20T17:53:45;0.93;;;0.83;;
1991;SDS011;997;48.448;8.924;2022-08-20T17:56:17;1.20;;;1.10;;
1991;SDS011;997;48.448;8.924;2022-08-20T17:58:48;1.33;;;1.03;;
1991;SDS011;997;48.448;8.924;2022-08-20T18:01:17;0.83;;;0.70;;
1991;SDS011;997;48.448;8.924;2022-08-20T18:03:45;1.40;;;1.10;;
1991;SDS011;997;48.448;8.924;2022-08-20T18:11:39;1.20;;;1.00;;
1991;SDS011;997;48.448;8.924;2022-08-20T18:17:42;1.37;;;1.23;;
1991;SDS011;997;48.448;8.924;2022-08-20T18:22:47;1.23;;;1.13;;
1991;SDS011;997;48.448;8.924;2022-08-20T18:25:31;2.40;;;1.40;;
1991;SDS011;997;48.448;8.924;2022-08-20T18:28:29;1.77;;;1.63;;
1991;SDS011;997;48.448;8.924;2022-08-20T18:31:03;1.33;;;1.23;;
1991;SDS011;997;48.448;8.924;2022-08-20T18:33:39;1.00;;;1.00;;
1991;SDS011;997;48.448;8.924;2022-08-20T18:38:42;1.30;;;1.10;;
1991;SDS011;997;48.448;8.924;2022-08-20T18:41:36;1.17;;;1.00;;
1991;SDS011;997;48.448;8.924;2022-08-20T18:46:59;1.60;;;1.30;;
1991;SDS011;997;48.448;8.924;2022-08-20T18:52:07;1.00;;;1.00;;
1991;SDS011;997;48.448;8.924;2022-08-20T18:54:48;1.43;;;1.20;;
1991;SDS011;997;48.448;8.924;2022-08-20T18:57:19;1.50;;;1.23;;
1991;SDS011;997;48.448;8.924;2022-08-20T19:00:09;1.23;;;1.10;;
1991;SDS011;997;48.448;8.924;2022-08-20T19:02:57;2.40;;;1.17;;
1991;SDS011;997;48.448;8.924;2022-08-20T19:08:08;1.50;;;1.33;;
1991;SDS011;997;48.448;8.924;2022-08-20T19:15:49;1.50;;;1.40;;
1991;SDS011;997;48.448;8.924;2022-08-20T19:21:19;2.50;;;1.80;;
1991;SDS011;997;48.448;8.924;2022-08-20T19:23:54;1.67;;;1.23;;
1991;SDS011;997;48.448;8.924;2022-08-20T19:26:26;1.53;;;1.43;;
1991;SDS011;997;48.448;8.924;2022-08-20T19:31:24;1.43;;;1.23;;
1991;SDS011;997;48.448;8.924;2022-08-20T19:34:11;1.90;;;1.80;;
1991;SDS011;997;48.448;8.924;2022-08-20T19:36:43;1.77;;;1.67;;
1991;SDS011;997;48.448;8.924;2022-08-20T19:39:17;4.50;;;1.90;;
1991;SDS011;997;48.448;8.924;2022-08-20T19:44:24;1.50;;;1.40;;
1991;SDS011;997;48.448;8.924;2022-08-20T19:46:54;2.43;;;1.90;;
1991;SDS011;997;48.448;8.924;2022-08-20T19:52:19;2.37;;;1.50;;